createdAt,value
2023-01-23T00:01:18.590Z,88769.00
2023-01-23T00:02:18.587Z,88775.00
2023-01-23T00:03:18.534Z,88769.00
2023-01-23T00:04:18.601Z,88777.00
2023-01-23T00:05:18.482Z,88777.00
2023-01-23T00:06:18.460Z,88777.00
2023-01-23T00:07:18.430Z,88777.00
2023-01-23T00:08:18.398Z,88773.00
2023-01-23T00:09:18.470Z,88773.00
2023-01-23T00:10:18.837Z,88785.00
2023-01-23T00:11:18.335Z,88787.00
2023-01-23T00:13:18.294Z,88781.00
2023-01-23T00:14:18.277Z,88781.00
2023-01-23T00:15:18.246Z,88783.00
2023-01-23T00:16:18.230Z,88783.00
2023-01-23T00:17:18.200Z,88783.00
2023-01-23T00:18:18.190Z,88787.00
2023-01-23T00:19:18.156Z,88788.00
2023-01-23T00:20:18.390Z,88785.00
2023-01-23T00:21:18.102Z,88787.00
2023-01-23T00:22:18.087Z,88788.00
2023-01-23T00:23:18.059Z,88785.00
2023-01-23T00:24:18.049Z,88783.00
2023-01-23T00:25:18.103Z,88781.00
2023-01-23T00:26:18.012Z,88779.00
2023-01-23T00:27:17.965Z,88783.00
2023-01-23T00:29:17.923Z,88788.00
2023-01-23T00:30:18.188Z,88787.00
2023-01-23T00:31:18.038Z,88785.00
2023-01-23T00:32:17.844Z,88788.00
2023-01-23T00:33:17.826Z,88787.00
2023-01-23T00:34:17.809Z,88785.00
2023-01-23T00:35:17.791Z,88781.00
2023-01-23T00:36:17.744Z,88779.00
2023-01-23T00:37:17.722Z,88777.00
2023-01-23T00:38:17.722Z,88777.00
2023-01-23T00:39:17.706Z,88777.00
2023-01-23T00:40:18.035Z,88771.00
2023-01-23T00:41:17.721Z,88769.00
2023-01-23T00:42:17.615Z,88769.00
2023-01-23T00:43:17.582Z,88767.00
2023-01-23T00:44:17.573Z,88775.00
2023-01-23T00:45:17.529Z,88777.00
2023-01-23T00:46:17.525Z,88779.00
2023-01-23T00:47:17.488Z,88775.00
2023-01-23T00:48:17.494Z,88777.00
2023-01-23T00:49:17.453Z,88775.00
2023-01-23T00:50:17.772Z,88777.00
2023-01-23T00:51:17.484Z,88775.00
2023-01-23T00:52:17.374Z,88775.00
2023-01-23T00:53:17.360Z,88773.00
2023-01-23T00:54:17.375Z,88773.00
2023-01-23T00:55:17.338Z,88777.00
2023-01-23T00:56:17.309Z,88781.00
2023-01-23T00:57:17.367Z,88785.00
2023-01-23T00:58:17.246Z,88785.00
2023-01-23T00:59:17.229Z,88783.00
2023-01-23T01:00:17.436Z,88781.00
2023-01-23T01:01:17.224Z,88785.00
2023-01-23T01:02:17.146Z,88781.00
2023-01-23T01:03:17.121Z,88781.00
2023-01-23T01:04:17.099Z,88779.00
2023-01-23T01:05:17.085Z,88779.00
2023-01-23T01:06:17.096Z,88781.00
2023-01-23T01:07:17.053Z,88781.00
2023-01-23T01:08:17.026Z,88785.00
2023-01-23T01:09:17.011Z,88783.00
2023-01-23T01:10:17.355Z,88783.00
2023-01-23T01:11:16.975Z,88781.00
2023-01-23T01:12:16.939Z,88783.00
2023-01-23T01:13:17.024Z,88783.00
2023-01-23T01:14:16.909Z,88783.00
2023-01-23T01:15:16.898Z,88785.00
2023-01-23T01:16:16.920Z,88783.00
2023-01-23T01:17:16.850Z,88779.00
2023-01-23T01:18:16.837Z,88781.00
2023-01-23T01:19:16.804Z,88779.00
2023-01-23T01:20:16.828Z,88779.00
2023-01-23T01:21:16.765Z,88779.00
2023-01-23T01:22:16.732Z,88781.00
2023-01-23T01:23:16.718Z,88781.00
2023-01-23T01:24:16.670Z,88785.00
2023-01-23T01:25:16.647Z,88785.00
2023-01-23T01:26:16.645Z,88787.00
2023-01-23T01:27:16.613Z,88785.00
2023-01-23T01:28:16.606Z,88779.00
2023-01-23T01:29:16.720Z,88777.00
2023-01-23T01:30:16.547Z,88777.00
2023-01-23T01:31:16.610Z,88773.00
2023-01-23T01:32:16.496Z,88775.00
2023-01-23T01:33:16.479Z,88775.00
2023-01-23T01:34:16.464Z,88777.00
2023-01-23T01:35:16.447Z,88777.00
2023-01-23T01:36:16.420Z,88779.00
2023-01-23T01:37:16.407Z,88775.00
2023-01-23T01:38:16.383Z,88773.00
2023-01-23T01:39:16.371Z,88769.00
2023-01-23T01:40:16.354Z,88765.00
2023-01-23T01:41:16.336Z,88769.00
2023-01-23T01:42:16.310Z,88765.00
2023-01-23T01:43:16.279Z,88767.00
2023-01-23T01:44:16.244Z,88765.00
2023-01-23T01:45:16.314Z,88767.00
2023-01-23T01:46:16.236Z,88767.00
2023-01-23T01:47:16.175Z,88767.00
2023-01-23T01:48:16.159Z,88763.00
2023-01-23T01:49:16.140Z,88761.00
2023-01-23T01:50:16.105Z,88753.00
2023-01-23T01:51:16.114Z,88747.00
2023-01-23T01:52:16.072Z,88745.00
2023-01-23T01:53:16.033Z,88745.00
2023-01-23T01:54:15.996Z,88745.00
2023-01-23T01:55:15.975Z,88749.00
2023-01-23T01:56:15.944Z,88755.00
2023-01-23T01:57:15.926Z,88759.00
2023-01-23T01:58:15.890Z,88761.00
2023-01-23T01:59:15.881Z,88759.00
2023-01-23T02:00:15.840Z,88755.00
2023-01-23T02:01:15.920Z,88755.00
2023-01-23T02:02:15.839Z,88751.00
2023-01-23T02:03:15.767Z,88755.00
2023-01-23T02:04:15.749Z,88757.00
2023-01-23T02:05:15.739Z,88755.00
2023-01-23T02:06:15.709Z,88755.00
2023-01-23T02:07:15.695Z,88755.00
2023-01-23T02:08:15.680Z,88759.00
2023-01-23T02:09:15.669Z,88763.00
2023-01-23T02:10:15.648Z,88765.00
2023-01-23T02:11:15.627Z,88763.00
2023-01-23T02:12:15.610Z,88759.00
2023-01-23T02:13:15.579Z,88757.00
2023-01-23T02:14:15.573Z,88757.00
2023-01-23T02:15:15.533Z,88761.00
2023-01-23T02:16:15.514Z,88763.00
2023-01-23T02:17:15.579Z,88763.00
2023-01-23T02:18:15.451Z,88765.00
2023-01-23T02:19:15.423Z,88765.00
2023-01-23T02:20:15.394Z,88765.00
2023-01-23T02:21:15.374Z,88771.00
2023-01-23T02:22:15.347Z,88773.00
2023-01-23T02:23:15.325Z,88773.00
2023-01-23T02:24:15.289Z,88775.00
2023-01-23T02:25:15.265Z,88773.00
2023-01-23T02:26:15.235Z,88777.00
2023-01-23T02:27:15.230Z,88779.00
2023-01-23T02:28:15.204Z,88783.00
2023-01-23T02:29:15.195Z,88781.00
2023-01-23T02:30:15.153Z,88781.00
2023-01-23T02:31:15.231Z,88777.00
2023-01-23T02:32:15.129Z,88775.00
2023-01-23T02:33:15.165Z,88777.00
2023-01-23T02:34:15.061Z,88773.00
2023-01-23T02:35:15.024Z,88775.00
2023-01-23T02:36:14.994Z,88775.00
2023-01-23T02:37:14.966Z,88775.00
2023-01-23T02:38:14.941Z,88775.00
2023-01-23T02:39:14.914Z,88779.00
2023-01-23T02:40:14.888Z,88777.00
2023-01-23T02:41:14.861Z,88777.00
2023-01-23T02:42:14.820Z,88775.00
2023-01-23T02:43:14.807Z,88773.00
2023-01-23T02:44:14.768Z,88775.00
2023-01-23T02:45:14.757Z,88775.00
2023-01-23T02:46:14.716Z,88773.00
2023-01-23T02:47:14.711Z,88769.00
2023-01-23T02:48:14.670Z,88763.00
2023-01-23T02:49:14.725Z,88763.00
2023-01-23T02:50:14.608Z,88769.00
2023-01-23T02:51:14.650Z,88773.00
2023-01-23T02:52:14.546Z,88775.00
2023-01-23T02:53:14.514Z,88777.00
2023-01-23T02:54:14.470Z,88777.00
2023-01-23T02:55:14.443Z,88777.00
2023-01-23T02:56:14.416Z,88779.00
2023-01-23T02:57:14.396Z,88779.00
2023-01-23T02:58:14.352Z,88779.00
2023-01-23T02:59:14.324Z,88781.00
2023-01-23T03:00:14.294Z,88779.00
2023-01-23T03:01:14.302Z,88781.00
2023-01-23T03:02:14.293Z,88785.00
2023-01-23T03:03:14.210Z,88783.00
2023-01-23T03:04:14.170Z,88783.00
2023-01-23T03:05:14.272Z,88785.00
2023-01-23T03:06:14.124Z,88783.00
2023-01-23T03:07:14.105Z,88785.00
2023-01-23T03:08:14.074Z,88787.00
2023-01-23T03:09:14.060Z,88785.00
2023-01-23T03:10:14.027Z,88787.00
2023-01-23T03:11:14.001Z,88779.00
2023-01-23T03:12:13.970Z,88777.00
2023-01-23T03:13:13.945Z,88779.00
2023-01-23T03:14:13.907Z,88781.00
2023-01-23T03:15:13.879Z,88783.00
2023-01-23T03:16:13.894Z,88785.00
2023-01-23T03:17:13.835Z,88781.00
2023-01-23T03:18:13.817Z,88781.00
2023-01-23T03:19:13.797Z,88781.00
2023-01-23T03:20:13.767Z,88783.00
2023-01-23T03:21:13.828Z,88781.00
2023-01-23T03:22:13.711Z,88779.00
2023-01-23T03:23:13.703Z,88779.00
2023-01-23T03:24:13.662Z,88785.00
2023-01-23T03:25:13.645Z,88785.00
2023-01-23T03:26:13.602Z,88785.00
2023-01-23T03:27:13.571Z,88785.00
2023-01-23T03:28:13.558Z,88781.00
2023-01-23T03:29:13.518Z,88779.00
2023-01-23T03:30:13.502Z,88779.00
2023-01-23T03:31:13.517Z,88777.00
2023-01-23T03:32:13.419Z,88777.00
2023-01-23T03:33:13.398Z,88775.00
2023-01-23T03:34:13.383Z,88779.00
2023-01-23T03:35:13.350Z,88775.00
2023-01-23T03:36:13.329Z,88779.00
2023-01-23T03:37:13.410Z,88775.00
2023-01-23T03:38:13.288Z,88777.00
2023-01-23T03:39:13.272Z,88779.00
2023-01-23T03:40:13.254Z,88779.00
2023-01-23T03:41:13.230Z,88781.00
2023-01-23T03:42:13.202Z,88777.00
2023-01-23T03:43:13.205Z,88777.00
2023-01-23T03:44:13.262Z,88773.00
2023-01-23T03:45:13.157Z,88777.00
2023-01-23T03:46:13.129Z,88775.00
2023-01-23T03:47:13.122Z,88781.00
2023-01-23T03:48:13.103Z,88779.00
2023-01-23T03:49:13.105Z,88777.00
2023-01-23T03:50:13.077Z,88779.00
2023-01-23T03:51:13.074Z,88779.00
2023-01-23T03:52:13.037Z,88777.00
2023-01-23T03:53:13.122Z,88783.00
2023-01-23T03:54:13.009Z,88781.00
2023-01-23T03:55:13.005Z,88781.00
2023-01-23T03:56:12.984Z,88777.00
2023-01-23T03:57:12.967Z,88775.00
2023-01-23T03:58:12.953Z,88777.00
2023-01-23T03:59:12.946Z,88783.00
2023-01-23T04:00:12.913Z,88779.00
2023-01-23T04:01:12.918Z,88779.00
2023-01-23T04:02:12.879Z,88779.00
2023-01-23T05:22:10.885Z,88808.00
2023-01-23T05:23:10.858Z,88812.00
2023-01-23T05:24:10.837Z,88812.00
2023-01-23T05:25:10.806Z,88812.00
2023-01-23T05:26:10.819Z,88810.00
2023-01-23T05:27:10.772Z,88814.00
2023-01-23T05:28:11.775Z,88816.00
2023-01-23T05:29:10.815Z,88816.00
2023-01-23T05:30:10.728Z,88816.00
2023-01-23T05:31:10.844Z,88816.00
2023-01-23T05:32:10.669Z,88816.00
2023-01-23T05:33:10.647Z,88814.00
2023-01-23T05:34:10.642Z,88818.00
2023-01-23T05:35:10.605Z,88818.00
2023-01-23T05:36:10.592Z,88820.00
2023-01-23T05:37:10.579Z,88820.00
2023-01-23T05:38:10.540Z,88820.00
2023-01-23T05:39:10.503Z,88822.00
2023-01-23T05:40:10.483Z,88820.00
2023-01-23T05:41:10.464Z,88820.00
2023-01-23T05:42:10.441Z,88822.00
2023-01-23T05:43:10.440Z,88826.00
2023-01-23T05:44:10.408Z,88828.00
2023-01-23T05:45:10.483Z,88826.00
2023-01-23T05:46:10.421Z,88830.00
2023-01-23T05:47:10.349Z,88834.00
2023-01-23T05:48:10.327Z,88838.00
2023-01-23T05:49:10.319Z,88836.00
2023-01-23T05:50:10.283Z,88828.00
2023-01-23T05:51:10.305Z,88826.00
2023-01-23T05:52:10.242Z,88828.00
2023-01-23T05:53:10.224Z,88826.00
2023-01-23T05:54:10.202Z,88832.00
2023-01-23T05:55:10.194Z,88836.00
2023-01-23T05:56:10.163Z,88839.00
2023-01-23T05:57:10.157Z,88839.00
2023-01-23T05:58:10.137Z,88843.00
2023-01-23T05:59:10.118Z,88839.00
2023-01-23T06:00:10.103Z,88841.00
2023-01-23T06:01:10.165Z,88841.00
2023-01-23T06:02:10.068Z,88843.00
2023-01-23T06:03:10.034Z,88841.00
2023-01-23T06:04:10.004Z,88839.00
2023-01-23T06:05:09.997Z,88839.00
2023-01-23T06:06:09.966Z,88839.00
2023-01-23T06:07:09.934Z,88838.00
2023-01-23T06:08:09.911Z,88836.00
2023-01-23T06:09:09.871Z,88836.00
2023-01-23T06:10:10.101Z,88834.00
2023-01-23T06:11:09.842Z,88834.00
2023-01-23T06:12:09.807Z,88838.00
2023-01-23T06:13:09.777Z,88838.00
2023-01-23T06:14:09.751Z,88839.00
2023-01-23T06:15:09.770Z,88836.00
2023-01-23T06:16:10.760Z,88830.00
2023-01-23T06:17:09.767Z,88824.00
2023-01-23T06:18:09.694Z,88828.00
2023-01-23T06:19:09.625Z,88832.00
2023-01-23T06:20:09.596Z,88830.00
2023-01-23T06:21:09.571Z,88834.00
2023-01-23T06:22:09.549Z,88834.00
2023-01-23T06:23:09.542Z,88834.00
2023-01-23T06:24:09.479Z,88838.00
2023-01-23T06:25:09.454Z,88836.00
2023-01-23T06:26:09.454Z,88832.00
2023-01-23T06:27:09.381Z,88830.00
2023-01-23T06:28:09.377Z,88832.00
2023-01-23T06:29:09.316Z,88830.00
2023-01-23T06:30:09.302Z,88836.00
2023-01-23T06:31:09.457Z,88843.00
2023-01-23T06:32:09.237Z,88845.00
2023-01-23T06:33:09.305Z,88845.00
2023-01-23T06:34:09.190Z,88843.00
2023-01-23T06:35:09.174Z,88845.00
2023-01-23T06:36:09.132Z,88849.00
2023-01-23T06:37:09.095Z,88841.00
2023-01-23T06:38:09.072Z,88841.00
2023-01-23T06:39:09.034Z,88839.00
2023-01-23T06:40:09.015Z,88841.00
2023-01-23T06:41:08.997Z,88847.00
2023-01-23T06:42:08.969Z,88845.00
2023-01-23T06:43:08.953Z,88843.00
2023-01-23T06:44:08.935Z,88838.00
2023-01-23T06:49:08.867Z,88834.00
2023-01-23T10:40:00.768Z,88857.00
2023-01-23T11:19:59.120Z,88851.00
2023-01-23T11:20:59.161Z,88847.00
2023-01-23T11:21:59.039Z,88847.00
2023-01-23T11:22:58.999Z,88851.00
2023-01-23T11:24:58.946Z,88851.00
2023-01-23T11:25:58.961Z,88847.00
2023-01-23T12:58:00.021Z,88771.00
2023-01-23T12:58:55.631Z,88775.00
2023-01-23T12:59:54.569Z,88779.00
2023-01-23T13:00:54.592Z,88785.00
2023-01-23T13:01:54.525Z,88783.00
2023-01-23T13:02:54.441Z,88781.00
2023-01-23T13:03:54.394Z,88771.00
2023-01-23T13:04:54.356Z,88769.00
2023-01-23T13:05:54.303Z,88771.00
2023-01-23T13:06:54.276Z,88771.00
2023-01-23T13:07:54.230Z,88775.00
2023-01-23T13:09:05.318Z,88775.00
2023-01-23T13:09:55.152Z,88771.00
2023-01-23T13:10:54.097Z,88773.00
2023-01-23T13:11:54.100Z,88775.00
2023-01-23T13:12:54.010Z,88777.00
2023-01-23T13:13:53.982Z,88775.00
2023-01-23T13:15:13.423Z,88763.00
2023-01-23T13:15:54.894Z,88761.00
2023-01-23T13:16:53.904Z,88757.00
2023-01-23T13:17:53.839Z,88763.00
2023-01-23T13:18:53.799Z,88763.00
2023-01-23T13:19:53.746Z,88769.00
2023-01-23T13:20:53.706Z,88773.00
2023-01-23T13:21:53.657Z,88769.00
2023-01-23T13:22:53.630Z,88761.00
2023-01-23T13:23:53.582Z,88757.00
2023-01-23T13:24:53.556Z,88761.00
2023-01-23T13:25:53.516Z,88765.00
2023-01-23T13:26:53.483Z,88765.00
2023-01-23T13:27:53.441Z,88769.00
2023-01-23T13:28:53.492Z,88769.00
2023-01-23T13:29:53.367Z,88769.00
2023-01-23T13:30:53.340Z,88767.00
2023-01-23T13:31:53.392Z,88759.00
2023-01-23T13:32:53.262Z,88761.00
2023-01-23T13:33:55.318Z,88759.00
2023-01-23T13:34:54.258Z,88759.00
2023-01-23T13:35:53.166Z,88763.00
2023-01-23T13:36:53.165Z,88763.00
2023-01-23T13:37:53.106Z,88763.00
2023-01-23T13:38:53.062Z,88763.00
2023-01-23T13:40:01.548Z,88763.00
2023-01-23T13:40:53.986Z,88759.00
2023-01-23T13:41:52.966Z,88761.00
2023-01-23T13:42:52.907Z,88767.00
2023-01-23T13:43:52.864Z,88767.00
2023-01-23T13:44:54.525Z,88767.00
2023-01-23T13:45:52.964Z,88763.00
2023-01-23T13:46:52.755Z,88757.00
2023-01-23T13:47:52.698Z,88753.00
2023-01-23T13:48:52.651Z,88753.00
2023-01-23T13:49:52.602Z,88753.00
2023-01-23T13:50:52.560Z,88751.00
2023-01-23T13:51:52.529Z,88753.00
2023-01-23T13:52:52.477Z,88753.00
2023-01-23T13:53:52.436Z,88761.00
2023-01-23T13:54:52.383Z,88765.00
2023-01-23T13:55:52.349Z,88767.00
2023-01-23T13:56:52.307Z,88761.00
2023-01-23T13:57:52.275Z,88757.00
2023-01-23T13:58:52.223Z,88759.00
2023-01-23T13:59:52.171Z,88757.00
2023-01-23T14:00:52.224Z,88749.00
2023-01-23T14:01:52.097Z,88743.00
2023-01-23T14:02:52.073Z,88749.00
2023-01-23T14:03:52.048Z,88757.00
2023-01-23T14:04:52.002Z,88761.00
2023-01-23T14:05:51.962Z,88761.00
2023-01-23T14:06:51.920Z,88757.00
2023-01-23T14:07:51.899Z,88759.00
2023-01-23T14:08:51.842Z,88763.00
2023-01-23T14:09:51.801Z,88757.00
2023-01-23T14:10:51.772Z,88753.00
2023-01-23T14:11:51.726Z,88751.00
2023-01-23T14:12:51.690Z,88753.00
2023-01-23T14:13:51.656Z,88755.00
2023-01-23T14:14:51.613Z,88759.00
2023-01-23T14:15:51.570Z,88759.00
2023-01-23T14:16:51.643Z,88757.00
2023-01-23T14:17:51.515Z,88759.00
2023-01-23T14:18:51.450Z,88755.00
2023-01-23T14:19:51.425Z,88749.00
2023-01-23T14:20:51.379Z,88749.00
2023-01-23T14:21:51.342Z,88759.00
2023-01-23T14:22:51.329Z,88761.00
2023-01-23T14:23:51.276Z,88757.00
2023-01-23T14:24:51.239Z,88753.00
2023-01-23T14:25:51.203Z,88753.00
2023-01-23T14:26:51.164Z,88755.00
2023-01-23T14:27:53.996Z,88757.00
2023-01-23T14:28:51.085Z,88755.00
2023-01-23T14:29:51.054Z,88747.00
2023-01-23T14:30:51.054Z,88751.00
2023-01-23T14:31:51.148Z,88749.00
2023-01-23T14:32:51.024Z,88753.00
2023-01-23T14:33:52.475Z,88755.00
2023-01-23T14:34:50.845Z,88753.00
2023-01-23T14:35:50.800Z,88753.00
2023-01-23T14:36:50.762Z,88755.00
2023-01-23T14:37:50.735Z,88751.00
2023-01-23T14:38:50.664Z,88749.00
2023-01-23T14:39:53.822Z,88755.00
2023-01-23T14:40:51.424Z,88761.00
2023-01-23T14:41:50.556Z,88759.00
2023-01-23T14:42:50.508Z,88747.00
2023-01-23T14:43:50.465Z,88739.00
2023-01-23T14:44:50.424Z,88751.00
2023-01-23T14:45:50.394Z,88761.00
2023-01-23T14:46:50.353Z,88765.00
2023-01-23T14:47:59.713Z,88759.00
2023-01-23T14:48:51.377Z,88757.00
2023-01-23T14:49:50.234Z,88755.00
2023-01-23T14:50:50.199Z,88759.00
2023-01-23T14:51:50.162Z,88761.00
2023-01-23T14:52:50.226Z,88761.00
2023-01-23T14:53:50.079Z,88765.00
2023-01-23T14:54:54.116Z,88755.00
2023-01-23T14:55:50.009Z,88757.00
2023-01-23T14:56:49.976Z,88761.00
2023-01-23T14:57:49.948Z,88763.00
2023-01-23T14:58:49.918Z,88759.00
2023-01-23T14:59:49.882Z,88757.00
2023-01-23T15:00:49.919Z,88759.00
2023-01-23T15:01:49.801Z,88761.00
2023-01-23T15:02:49.838Z,88763.00
2023-01-23T15:03:49.721Z,88761.00
2023-01-23T15:04:49.682Z,88759.00
2023-01-23T15:05:49.657Z,88759.00
2023-01-23T15:06:49.611Z,88759.00
2023-01-23T15:07:49.605Z,88757.00
2023-01-23T15:08:49.533Z,88759.00
2023-01-23T15:09:49.502Z,88763.00
2023-01-23T15:10:49.448Z,88763.00
2023-01-23T15:11:49.416Z,88765.00
2023-01-23T15:12:49.373Z,88761.00
2023-01-23T15:13:49.344Z,88761.00
2023-01-23T15:14:49.289Z,88765.00
2023-01-23T15:15:49.252Z,88767.00
2023-01-23T15:16:49.269Z,88765.00
2023-01-23T15:17:49.187Z,88759.00
2023-01-23T15:18:49.161Z,88759.00
2023-01-23T15:19:49.126Z,88763.00
2023-01-23T15:20:49.189Z,88769.00
2023-01-23T15:21:49.062Z,88769.00
2023-01-23T15:22:49.027Z,88767.00
2023-01-23T15:23:49.064Z,88767.00
2023-01-23T15:24:48.962Z,88773.00
2023-01-23T15:25:57.477Z,88775.00
2023-01-23T15:26:49.886Z,88777.00
2023-01-23T18:14:43.121Z,88887.00
2023-01-23T18:15:43.091Z,88890.00
2023-01-23T18:17:43.330Z,88896.00
2023-01-23T18:18:43.005Z,88892.00
2023-01-23T18:19:42.978Z,88892.00
2023-01-23T18:20:42.958Z,88892.00
2023-01-23T18:22:42.907Z,88894.00
2023-01-23T18:23:42.904Z,88894.00
2023-01-23T18:24:42.842Z,88900.00
2023-01-23T18:25:42.801Z,88902.00
2023-01-23T18:26:42.778Z,88902.00
2023-01-23T18:27:42.725Z,88902.00
2023-01-23T18:28:42.701Z,88904.00
2023-01-23T18:29:42.662Z,88904.00
2023-01-23T18:30:42.634Z,88904.00
2023-01-23T18:31:42.634Z,88906.00
2023-01-23T18:33:42.564Z,88910.00
2023-01-23T18:34:42.519Z,88912.00
2023-01-23T18:35:42.495Z,88910.00
2023-01-23T18:36:42.466Z,88912.00
2023-01-23T18:37:42.444Z,88912.00
2023-01-23T18:38:42.414Z,88914.00
2023-01-23T18:39:42.386Z,88914.00
2023-01-23T18:40:42.371Z,88918.00
2023-01-23T18:41:42.310Z,88920.00
2023-01-23T18:42:42.287Z,88918.00
2023-01-23T18:43:42.237Z,88914.00
2023-01-23T18:44:42.211Z,88914.00
2023-01-23T18:45:42.205Z,88914.00
2023-01-23T19:11:41.279Z,88914.00
2023-01-23T19:26:40.799Z,88918.00
2023-01-23T19:27:40.768Z,88916.00
2023-01-23T19:28:40.747Z,88918.00
2023-01-23T19:29:40.724Z,88914.00
2023-01-23T19:30:40.730Z,88920.00
2023-01-23T19:31:40.808Z,88922.00
2023-01-23T19:32:42.620Z,88928.00
2023-01-23T19:33:40.587Z,88930.00
2023-01-23T19:34:40.572Z,88928.00
2023-01-23T19:35:40.524Z,88928.00
2023-01-23T19:36:40.588Z,88924.00
2023-01-23T19:37:40.472Z,88926.00
2023-01-23T19:38:40.433Z,88928.00
2023-01-23T19:39:40.410Z,88924.00
2023-01-23T19:40:40.381Z,88926.00
2023-01-23T19:41:40.348Z,88928.00
2023-01-23T19:42:52.501Z,88930.00
2023-01-23T19:43:41.280Z,88936.00
2023-01-23T19:44:40.236Z,88936.00
2023-01-23T19:45:41.135Z,88936.00
2023-01-23T19:46:40.179Z,88934.00
2023-01-23T19:47:40.137Z,88930.00
2023-01-23T19:48:40.085Z,88932.00
2023-01-23T19:49:40.047Z,88936.00
2023-01-23T19:50:40.015Z,88936.00
2023-01-23T19:51:39.984Z,88936.00
2023-01-23T19:52:39.951Z,88934.00
2023-01-23T19:53:39.917Z,88932.00
2023-01-23T19:54:39.897Z,88928.00
2023-01-23T19:55:39.857Z,88932.00
2023-01-23T19:56:39.896Z,88934.00
2023-01-23T19:57:39.813Z,88934.00
2023-01-23T19:58:39.792Z,88934.00
2023-01-23T19:59:39.764Z,88930.00
2023-01-23T20:00:39.734Z,88930.00
2023-01-23T20:01:39.708Z,88928.00
2023-01-23T20:02:39.685Z,88934.00
2023-01-23T20:03:39.629Z,88936.00
2023-01-23T20:04:39.602Z,88938.00
2023-01-23T20:05:39.573Z,88940.00
2023-01-23T20:06:39.529Z,88936.00
2023-01-23T20:07:39.522Z,88932.00
2023-01-23T20:08:39.640Z,88936.00
2023-01-23T20:09:39.466Z,88932.00
2023-01-23T20:10:39.412Z,88934.00
2023-01-23T20:11:39.371Z,88936.00
2023-01-23T20:12:39.360Z,88944.00
2023-01-23T20:13:39.321Z,88942.00
2023-01-23T20:14:39.292Z,88945.00
2023-01-23T20:15:39.260Z,88945.00
2023-01-23T20:16:39.249Z,88945.00
2023-01-23T20:17:39.187Z,88942.00
2023-01-23T20:18:39.181Z,88940.00
2023-01-23T20:19:39.114Z,88947.00
2023-01-23T20:20:39.107Z,88947.00
2023-01-23T20:21:39.065Z,88951.00
2023-01-23T20:22:39.047Z,88951.00
2023-01-23T20:23:39.009Z,88955.00
2023-01-23T20:24:39.068Z,88951.00
2023-01-23T20:25:38.947Z,88949.00
2023-01-23T20:26:38.939Z,88947.00
2023-01-23T20:27:38.891Z,88955.00
2023-01-23T21:13:37.434Z,88992.00
2023-01-23T21:14:37.411Z,88996.00
2023-01-23T21:15:37.389Z,88998.00
2023-01-23T21:16:37.333Z,88998.00
2023-01-23T21:17:37.295Z,89000.00
2023-01-23T21:18:37.272Z,89002.00
2023-01-23T21:19:37.233Z,89002.00
2023-01-23T21:20:39.288Z,89000.00
2023-01-23T21:21:37.411Z,89000.00
2023-01-23T21:22:37.379Z,89000.00
2023-01-23T21:23:38.160Z,89000.00
2023-01-23T21:24:37.319Z,89002.00
2023-01-23T21:25:37.292Z,89002.00
2023-01-23T21:26:37.273Z,89002.00
2023-01-23T21:27:37.237Z,89004.00
2023-01-23T21:28:37.297Z,89004.00
2023-01-23T21:29:37.182Z,89006.00
2023-01-23T21:30:37.177Z,89006.00
2023-01-23T21:31:37.284Z,89008.00
2023-01-23T21:32:37.092Z,89012.00
2023-01-23T21:33:37.052Z,89013.00
2023-01-23T21:34:37.046Z,89015.00
2023-01-23T21:35:37.012Z,89017.00
2023-01-23T21:36:36.973Z,89019.00
2023-01-23T21:37:36.945Z,89019.00
2023-01-23T21:38:36.924Z,89021.00
2023-01-23T21:39:36.892Z,89023.00
2023-01-23T21:40:36.855Z,89023.00
2023-01-23T21:41:36.816Z,89025.00
2023-01-23T21:42:36.790Z,89027.00
2023-01-23T21:43:36.764Z,89027.00
2023-01-23T21:44:36.827Z,89029.00
2023-01-23T21:45:36.697Z,89031.00
2023-01-23T21:46:36.722Z,89035.00
2023-01-23T21:47:36.638Z,89033.00
2023-01-23T21:48:36.621Z,89035.00
2023-01-23T21:49:36.573Z,89037.00
2023-01-23T21:50:36.533Z,89037.00
2023-01-23T21:51:36.504Z,89035.00
2023-01-23T21:52:36.463Z,89033.00
2023-01-23T21:53:36.428Z,89031.00
2023-01-23T21:54:36.396Z,89033.00
2023-01-23T21:55:36.359Z,89035.00
2023-01-23T21:56:36.332Z,89035.00
2023-01-23T21:57:36.275Z,89035.00
2023-01-23T21:58:36.247Z,89037.00
2023-01-23T21:59:36.207Z,89039.00
2023-01-23T22:00:36.270Z,89039.00
2023-01-23T22:01:36.347Z,89039.00
2023-01-23T22:02:36.124Z,89039.00
2023-01-23T22:03:36.074Z,89041.00
2023-01-23T22:04:36.068Z,89039.00
2023-01-23T22:05:35.980Z,89041.00
2023-01-23T22:06:35.952Z,89043.00
2023-01-23T22:07:35.930Z,89045.00
2023-01-23T22:08:35.870Z,89043.00
2023-01-23T22:09:35.849Z,89041.00
2023-01-23T22:10:35.813Z,89039.00
2023-01-23T22:11:35.757Z,89037.00
2023-01-23T22:12:35.725Z,89037.00
2023-01-23T22:13:35.691Z,89037.00
2023-01-23T22:14:35.655Z,89035.00
2023-01-23T22:15:35.633Z,89033.00
2023-01-23T22:16:47.882Z,89031.00
2023-01-23T22:17:36.564Z,89035.00
2023-01-23T22:18:35.524Z,89033.00
2023-01-23T22:19:35.484Z,89035.00
2023-01-23T22:20:35.518Z,89035.00
2023-01-23T22:21:35.407Z,89037.00
2023-01-23T22:22:35.381Z,89037.00
2023-01-23T22:23:35.341Z,89037.00
2023-01-23T22:24:35.313Z,89037.00
2023-01-23T22:25:35.278Z,89033.00
2023-01-23T22:26:35.244Z,89033.00
2023-01-23T22:27:35.212Z,89031.00
2023-01-23T22:28:35.171Z,89033.00
2023-01-23T22:29:35.130Z,89037.00
2023-01-23T22:30:35.145Z,89037.00
2023-01-23T22:31:35.102Z,89039.00
2023-01-23T22:32:35.103Z,89039.00
2023-01-23T22:33:40.479Z,89037.00
2023-01-23T22:34:35.938Z,89039.00
2023-01-23T22:35:34.926Z,89041.00
2023-01-23T22:36:34.968Z,89041.00
2023-01-23T22:37:34.821Z,89043.00
2023-01-23T22:38:34.791Z,89039.00
2023-01-23T22:39:34.751Z,89039.00
2023-01-23T22:40:34.721Z,89037.00
2023-01-23T22:41:34.688Z,89039.00
2023-01-23T22:42:34.657Z,89043.00
2023-01-23T22:43:34.612Z,89045.00
2023-01-23T22:44:34.583Z,89045.00
2023-01-23T22:45:34.545Z,89047.00
2023-01-23T22:46:34.626Z,89047.00
2023-01-23T22:47:34.477Z,89049.00
2023-01-23T22:48:34.554Z,89047.00
2023-01-23T22:49:34.401Z,89049.00
2023-01-23T22:50:34.394Z,89049.00
2023-01-23T22:51:34.374Z,89053.00
2023-01-23T22:52:34.304Z,89055.00
2023-01-23T22:53:34.300Z,89053.00
2023-01-23T22:54:34.242Z,89053.00
2023-01-23T22:55:34.214Z,89055.00
2023-01-23T22:56:34.179Z,89057.00
2023-01-23T22:57:34.151Z,89059.00
2023-01-23T22:58:34.119Z,89060.00
2023-01-23T22:59:34.105Z,89060.00
2023-01-23T23:00:34.106Z,89064.00
2023-01-23T23:01:34.056Z,89062.00
2023-01-23T23:02:34.059Z,89060.00
2023-01-23T23:03:33.998Z,89059.00
2023-01-23T23:04:34.071Z,89060.00
2023-01-23T23:05:33.936Z,89060.00
2023-01-23T23:06:33.896Z,89060.00
2023-01-23T23:07:33.903Z,89059.00
2023-01-23T23:08:33.855Z,89059.00
2023-01-23T23:09:33.845Z,89059.00
2023-01-23T23:10:33.888Z,89059.00
2023-01-23T23:11:33.769Z,89059.00
2023-01-23T23:12:33.753Z,89059.00
2023-01-23T23:13:33.734Z,89059.00
2023-01-23T23:14:33.677Z,89057.00
2023-01-23T23:15:33.685Z,89055.00
2023-01-23T23:16:33.685Z,89057.00
2023-01-23T23:17:33.622Z,89055.00
2023-01-23T23:18:33.567Z,89057.00
2023-01-23T23:19:33.540Z,89053.00
2023-01-23T23:20:33.613Z,89055.00
2023-01-23T23:21:33.495Z,89055.00
2023-01-23T23:22:33.471Z,89053.00
2023-01-23T23:23:33.442Z,89055.00
2023-01-23T23:24:33.412Z,89055.00